createdAt,value
2019-06-20T00:00:46.063Z,100.00
2019-06-20T00:02:22.284Z,100.00
2019-06-20T00:03:56.986Z,100.00
2019-06-20T00:05:33.467Z,100.00
2019-06-20T00:07:08.178Z,100.00
2019-06-20T00:08:43.399Z,100.00
2019-06-20T00:10:18.122Z,100.00
2019-06-20T00:11:54.341Z,100.00
2019-06-20T00:13:28.986Z,100.00
2019-06-20T00:15:04.324Z,100.00
2019-06-20T00:16:39.227Z,100.00
2019-06-20T00:18:14.473Z,100.00
2019-06-20T00:19:49.131Z,100.00
2019-06-20T00:21:24.356Z,100.00
2019-06-20T00:22:59.010Z,100.00
2019-06-20T00:24:34.266Z,100.00
2019-06-20T00:26:08.909Z,100.00
2019-06-20T00:27:44.274Z,100.00
2019-06-20T00:29:18.977Z,100.00
2019-06-20T00:30:54.477Z,100.00
2019-06-20T00:32:29.131Z,100.00
2019-06-20T00:34:04.871Z,100.00
2019-06-20T00:35:39.510Z,100.00
2019-06-20T00:37:14.742Z,100.00
2019-06-20T00:38:49.410Z,100.00
2019-06-20T00:40:24.748Z,100.00
2019-06-20T00:41:59.404Z,99.95
2019-06-20T00:43:34.626Z,99.75
2019-06-20T00:45:09.622Z,99.06
2019-06-20T00:46:44.863Z,99.30
2019-06-20T00:48:19.611Z,98.68
2019-06-20T00:49:54.859Z,99.20
2019-06-20T00:51:29.591Z,98.79
2019-06-20T00:53:04.904Z,98.12
2019-06-20T00:54:39.560Z,98.40
2019-06-20T00:56:14.787Z,99.85
2019-06-20T00:57:49.434Z,99.54
2019-06-20T00:59:24.732Z,100.00
2019-06-20T01:00:59.375Z,100.00
2019-06-20T01:02:35.574Z,100.00
2019-06-20T01:04:10.379Z,100.00
2019-06-20T01:05:45.628Z,100.00
2019-06-20T01:07:20.618Z,100.00
2019-06-20T01:08:56.922Z,100.00
2019-06-20T01:10:31.555Z,100.00
2019-06-20T01:12:06.823Z,100.00
2019-06-20T01:13:41.507Z,100.00
2019-06-20T01:15:17.136Z,100.00
2019-06-20T01:16:51.781Z,100.00
2019-06-20T01:18:27.032Z,100.00
2019-06-20T01:20:01.707Z,100.00
2019-06-20T01:21:36.935Z,100.00
2019-06-20T01:23:11.644Z,100.00
2019-06-20T01:24:46.879Z,100.00
2019-06-20T01:26:22.569Z,100.00
2019-06-20T01:27:57.833Z,100.00
2019-06-20T01:29:32.476Z,100.00
2019-06-20T01:31:07.792Z,100.00
2019-06-20T01:32:42.467Z,100.00
2019-06-20T01:34:17.707Z,100.00
2019-06-20T01:35:52.447Z,100.00
2019-06-20T01:37:27.769Z,100.00
2019-06-20T01:39:02.443Z,100.00
2019-06-20T01:40:39.521Z,100.00
2019-06-20T01:42:14.193Z,100.00
2019-06-20T01:43:51.099Z,100.00
2019-06-20T01:45:26.094Z,100.00
2019-06-20T01:47:01.368Z,100.00
2019-06-20T01:48:36.106Z,100.00
2019-06-20T01:50:11.498Z,100.00
2019-06-20T01:51:46.132Z,100.00
2019-06-20T01:53:22.482Z,100.00
2019-06-20T01:54:57.137Z,100.00
2019-06-20T01:56:32.363Z,100.00
2019-06-20T01:58:07.006Z,100.00
2019-06-20T01:59:42.249Z,100.00
2019-06-20T02:01:17.330Z,100.00
2019-06-20T02:02:52.565Z,100.00
2019-06-20T02:04:27.237Z,100.00
2019-06-20T02:06:02.587Z,100.00
2019-06-20T02:07:37.225Z,100.00
2019-06-20T02:09:12.457Z,100.00
2019-06-20T02:10:47.177Z,100.00
2019-06-20T02:12:22.552Z,100.00
2019-06-20T02:14:06.757Z,100.00
2019-06-20T02:15:34.248Z,100.00
2019-06-20T02:17:08.985Z,100.00
2019-06-20T02:18:44.215Z,100.00
2019-06-20T02:20:31.540Z,100.00
2019-06-20T02:22:06.894Z,100.00
2019-06-20T02:23:41.534Z,100.00
2019-06-20T02:25:17.118Z,100.00
2019-06-20T02:26:51.773Z,100.00
2019-06-20T02:28:27.021Z,100.00
2019-06-20T02:30:01.665Z,100.00
2019-06-20T02:31:37.051Z,100.00
2019-06-20T02:33:11.768Z,100.00
2019-06-20T02:34:47.010Z,100.00
2019-06-20T02:36:21.652Z,100.00
2019-06-20T02:37:56.917Z,100.00
2019-06-20T02:39:31.573Z,100.00
2019-06-20T02:41:06.853Z,100.00
2019-06-20T02:42:41.601Z,100.00
2019-06-20T02:44:29.020Z,100.00
2019-06-20T02:45:53.589Z,100.00
2019-06-20T02:47:28.813Z,100.00
2019-06-20T02:49:03.533Z,100.00
2019-06-20T02:50:38.849Z,100.00
2019-06-20T02:52:13.779Z,100.00
2019-06-20T02:53:49.110Z,100.00
2019-06-20T02:55:23.891Z,100.00
2019-06-20T02:56:59.112Z,100.00
2019-06-20T02:58:33.792Z,100.00
2019-06-20T03:00:10.779Z,100.00
2019-06-20T03:01:45.408Z,100.00
2019-06-20T03:03:20.719Z,100.00
2019-06-20T03:04:55.387Z,100.00
2019-06-20T03:06:30.792Z,100.00
2019-06-20T03:08:05.511Z,100.00
2019-06-20T03:09:41.125Z,100.00
2019-06-20T03:11:15.795Z,100.00
2019-06-20T03:12:51.027Z,100.00
2019-06-20T03:14:25.661Z,100.00
2019-06-20T03:16:01.995Z,100.00
2019-06-20T03:17:36.681Z,100.00
2019-06-20T03:19:11.908Z,100.00
2019-06-20T03:20:46.738Z,100.00
2019-06-20T03:22:21.981Z,100.00
2019-06-20T03:23:56.614Z,100.00
2019-06-20T03:25:31.843Z,100.00
2019-06-20T03:27:06.550Z,100.00
2019-06-20T03:28:41.784Z,100.00
2019-06-20T03:30:16.681Z,100.00
2019-06-20T03:31:51.981Z,100.00
2019-06-20T03:33:26.604Z,100.00
2019-06-20T03:35:01.837Z,100.00
2019-06-20T03:36:36.486Z,100.00
2019-06-20T03:38:11.868Z,100.00
2019-06-20T03:39:46.459Z,100.00
2019-06-20T03:41:21.689Z,99.69
2019-06-20T03:42:56.349Z,99.03
2019-06-20T03:44:31.583Z,98.33
2019-06-20T03:46:06.305Z,99.03
2019-06-20T03:47:42.406Z,99.00
2019-06-20T03:49:17.056Z,98.81
2019-06-20T03:50:52.328Z,98.25
2019-06-20T03:52:26.975Z,98.58
2019-06-20T03:54:02.217Z,97.79
2019-06-20T03:55:37.994Z,97.88
2019-06-20T03:57:13.220Z,98.87
2019-06-20T03:58:48.040Z,98.59
2019-06-20T04:00:25.244Z,98.94
2019-06-20T04:01:59.848Z,98.37
2019-06-20T04:03:35.060Z,98.09
2019-06-20T04:05:09.995Z,98.27
2019-06-20T04:06:45.761Z,98.36
2019-06-20T04:08:20.420Z,97.78
2019-06-20T04:09:55.684Z,97.66
2019-06-20T04:11:30.687Z,98.06
2019-06-20T04:13:05.966Z,98.85
2019-06-20T04:14:40.613Z,98.13
2019-06-20T04:16:15.916Z,98.59
2019-06-20T04:17:50.636Z,98.37
2019-06-20T04:19:26.386Z,98.21
2019-06-20T04:21:01.076Z,97.46
2019-06-20T04:22:36.281Z,97.46
2019-06-20T04:24:10.956Z,96.75
2019-06-20T04:25:46.181Z,96.78
2019-06-20T04:27:20.932Z,96.97
2019-06-20T04:28:56.143Z,96.79
2019-06-20T04:30:30.774Z,96.15
2019-06-20T04:32:06.435Z,95.51
2019-06-20T04:33:41.549Z,94.48
2019-06-20T04:35:16.775Z,95.23
2019-06-20T04:36:51.410Z,94.81
2019-06-20T04:38:26.630Z,93.48
2019-06-20T04:40:01.274Z,93.42
2019-06-20T04:41:36.619Z,93.66
2019-06-20T04:43:11.298Z,92.39
2019-06-20T04:44:46.532Z,90.99
2019-06-20T04:46:36.198Z,91.41
2019-06-20T04:48:11.505Z,91.11
2019-06-20T04:49:46.112Z,92.94
2019-06-20T04:51:21.338Z,90.80
2019-06-20T04:52:55.983Z,90.45
2019-06-20T04:54:31.215Z,92.00
2019-06-20T04:56:06.076Z,91.02
2019-06-20T04:57:41.370Z,92.65
2019-06-20T04:59:16.084Z,93.10
2019-06-20T05:00:51.324Z,93.15
2019-06-20T05:02:34.183Z,91.69
2019-06-20T05:04:09.453Z,93.51
2019-06-20T05:05:44.129Z,91.59
2019-06-20T05:07:20.545Z,93.08
2019-06-20T05:08:55.196Z,91.68
2019-06-20T05:10:30.433Z,91.45
2019-06-20T05:12:05.159Z,90.25
2019-06-20T05:13:40.450Z,89.12
2019-06-20T05:15:15.178Z,89.45
2019-06-20T05:16:50.433Z,89.54
2019-06-20T05:18:25.135Z,88.38
2019-06-20T05:20:00.702Z,88.36
2019-06-20T05:21:35.633Z,84.54
2019-06-20T05:23:10.908Z,79.27
2019-06-20T05:24:45.567Z,66.04
2019-06-20T05:26:20.781Z,65.25
2019-06-20T05:27:55.425Z,55.99
2019-06-20T05:29:31.059Z,57.41
2019-06-20T05:31:05.706Z,56.20
2019-06-20T05:32:41.012Z,60.76
2019-06-20T05:34:15.658Z,65.08
2019-06-20T05:35:50.870Z,66.12
2019-06-20T05:37:25.595Z,67.80
2019-06-20T05:39:00.792Z,60.69
2019-06-20T05:40:37.246Z,65.26
2019-06-20T05:42:12.467Z,72.66
2019-06-20T05:43:47.123Z,76.34
2019-06-20T05:45:22.362Z,76.71
2019-06-20T05:47:11.442Z,77.69
2019-06-20T05:48:33.955Z,77.57
2019-06-20T05:50:09.004Z,76.80
2019-06-20T05:51:44.244Z,77.62
2019-06-20T05:53:18.884Z,76.27
2019-06-20T05:54:54.175Z,77.41
2019-06-20T05:56:28.823Z,77.04
2019-06-20T05:58:04.034Z,70.04
2019-06-20T05:59:38.675Z,68.03
2019-06-20T06:01:13.879Z,68.00
2019-06-20T06:02:48.556Z,65.90
2019-06-20T06:04:24.759Z,49.88
2019-06-20T06:05:59.465Z,62.06
2019-06-20T06:07:34.696Z,67.42
2019-06-20T06:09:09.659Z,66.33
2019-06-20T06:10:45.483Z,65.62
2019-06-20T06:12:20.131Z,65.77
2019-06-20T06:13:56.253Z,68.22
2019-06-20T06:15:31.039Z,65.59
2019-06-20T06:17:06.333Z,70.32
2019-06-20T06:18:40.965Z,71.32
2019-06-20T06:20:16.597Z,68.82
2019-06-20T06:21:51.308Z,68.75
2019-06-20T06:23:26.509Z,69.70
2019-06-20T06:25:01.198Z,69.56
2019-06-20T06:26:36.521Z,70.00
2019-06-20T06:28:12.527Z,71.12
2019-06-20T06:29:48.086Z,73.01
2019-06-20T06:31:23.900Z,75.42
2019-06-20T06:32:59.124Z,78.02
2019-06-20T06:34:33.769Z,76.43
2019-06-20T06:36:09.015Z,71.54
2019-06-20T06:37:43.633Z,71.45
2019-06-20T06:39:19.284Z,71.03
2019-06-20T06:40:54.050Z,75.50
2019-06-20T06:42:29.395Z,75.06
2019-06-20T06:44:04.117Z,72.89
2019-06-20T06:45:40.493Z,74.00
2019-06-20T06:47:15.124Z,78.40
2019-06-20T06:48:50.622Z,75.53
2019-06-20T06:50:25.805Z,74.67
2019-06-20T06:52:01.056Z,76.49
2019-06-20T06:53:35.773Z,76.16
2019-06-20T06:55:11.191Z,78.55
2019-06-20T06:56:45.841Z,80.70
2019-06-20T06:58:21.091Z,79.34
2019-06-20T06:59:55.844Z,76.68
2019-06-20T07:01:31.318Z,78.99
2019-06-20T07:03:06.052Z,78.95
2019-06-20T07:04:41.295Z,77.84
2019-06-20T07:06:15.997Z,78.19
2019-06-20T07:07:51.325Z,74.49
2019-06-20T07:09:25.981Z,75.72
2019-06-20T07:11:01.277Z,75.73
2019-06-20T07:12:36.006Z,74.67
2019-06-20T07:14:11.308Z,78.00
2019-06-20T07:15:45.940Z,79.39
2019-06-20T07:17:21.184Z,75.27
2019-06-20T07:18:56.767Z,72.60
2019-06-20T07:20:32.009Z,72.12
2019-06-20T07:22:06.736Z,58.94
2019-06-20T07:23:41.990Z,49.86
2019-06-20T07:25:16.966Z,53.24
2019-06-20T07:26:52.221Z,62.26
2019-06-20T07:28:26.856Z,65.03
2019-06-20T07:30:02.161Z,67.10
2019-06-20T07:31:36.868Z,70.32
2019-06-20T07:33:12.205Z,72.12
2019-06-20T07:34:46.838Z,70.58
2019-06-20T07:36:22.063Z,71.35
2019-06-20T07:37:56.778Z,72.59
2019-06-20T07:39:31.949Z,72.00
2019-06-20T07:41:06.579Z,74.25
2019-06-20T07:42:41.830Z,71.50
2019-06-20T07:44:16.482Z,71.84
2019-06-20T07:46:02.024Z,71.51
2019-06-20T07:47:28.103Z,70.70
2019-06-20T07:49:03.322Z,70.96
2019-06-20T07:50:39.404Z,71.51
2019-06-20T07:52:14.809Z,71.92
2019-06-20T07:53:49.462Z,68.66
2019-06-20T07:55:24.750Z,63.79
2019-06-20T07:56:59.387Z,67.38
2019-06-20T07:58:34.731Z,69.62
2019-06-20T08:00:10.330Z,71.71
2019-06-20T08:01:46.534Z,71.16
2019-06-20T08:03:21.206Z,68.66
2019-06-20T08:04:56.404Z,69.48
2019-06-20T08:06:31.083Z,68.03
2019-06-20T08:08:06.585Z,70.96
2019-06-20T08:09:45.157Z,70.15
2019-06-20T08:11:18.358Z,70.31
2019-06-20T08:12:53.308Z,70.14
2019-06-20T08:14:28.551Z,69.05
2019-06-20T08:16:04.056Z,67.85
2019-06-20T08:17:39.490Z,69.90
2019-06-20T08:19:14.175Z,68.18
2019-06-20T08:20:49.549Z,67.65
2019-06-20T08:22:24.201Z,67.66
2019-06-20T08:23:59.423Z,68.22
2019-06-20T08:25:34.259Z,67.97
2019-06-20T08:27:10.652Z,68.15
2019-06-20T08:28:45.323Z,68.74
2019-06-20T08:30:25.747Z,69.65
2019-06-20T08:32:01.040Z,68.06
2019-06-20T08:33:37.349Z,66.57
2019-06-20T08:35:12.090Z,64.82
2019-06-20T08:36:47.363Z,62.42
2019-06-20T08:38:22.049Z,61.85
2019-06-20T08:39:58.379Z,61.15
2019-06-20T08:41:33.220Z,59.60
2019-06-20T08:43:08.636Z,60.45
2019-06-20T08:44:43.405Z,60.92
2019-06-20T08:46:18.648Z,61.59
2019-06-20T08:47:56.489Z,63.39
2019-06-20T08:49:31.505Z,62.51
2019-06-20T08:51:06.593Z,63.49
2019-06-20T08:52:42.156Z,64.07
2019-06-20T08:54:16.839Z,63.20
2019-06-20T08:55:52.142Z,59.86
2019-06-20T08:57:27.183Z,59.77
2019-06-20T08:59:02.674Z,60.35
2019-06-20T09:00:39.435Z,57.67
2019-06-20T09:02:14.681Z,57.32
2019-06-20T09:03:49.300Z,56.99
2019-06-20T09:05:24.871Z,55.90
2019-06-20T09:07:00.599Z,54.63
2019-06-20T09:08:36.327Z,55.20
2019-06-20T09:10:11.883Z,52.63
2019-06-20T09:11:47.156Z,48.10
2019-06-20T09:13:21.851Z,48.82
2019-06-20T09:14:57.008Z,46.75
2019-06-20T09:16:31.723Z,47.51
2019-06-20T09:18:07.192Z,47.42
2019-06-20T09:19:41.826Z,49.24
2019-06-20T09:21:17.070Z,45.02
2019-06-20T09:22:52.319Z,45.12
2019-06-20T09:24:28.710Z,46.69
2019-06-20T09:26:03.904Z,41.86
2019-06-20T09:27:39.610Z,41.66
2019-06-20T09:29:14.243Z,42.89
2019-06-20T09:30:50.656Z,42.21
2019-06-20T09:32:25.843Z,43.06
2019-06-20T09:34:04.903Z,43.74
2019-06-20T09:35:37.480Z,42.73
2019-06-20T09:37:12.689Z,44.92
2019-06-20T09:38:47.495Z,45.28
2019-06-20T09:40:23.096Z,45.69
2019-06-20T09:41:58.909Z,45.90
2019-06-20T09:43:34.233Z,44.53
2019-06-20T09:45:09.226Z,46.76
2019-06-20T09:46:44.546Z,46.20
2019-06-20T09:48:19.236Z,47.33
2019-06-20T09:49:55.999Z,47.62
2019-06-20T09:51:30.921Z,49.23
2019-06-20T09:53:06.329Z,48.30
2019-06-20T09:54:40.959Z,45.92
2019-06-20T09:56:16.258Z,45.38
2019-06-20T09:57:51.999Z,46.34
2019-06-20T09:59:28.047Z,48.10
2019-06-20T10:01:03.892Z,49.43
2019-06-20T10:02:39.555Z,45.93
2019-06-20T10:04:14.206Z,45.76
2019-06-20T10:05:50.699Z,46.92
2019-06-20T10:07:25.610Z,48.34
2019-06-20T10:09:00.834Z,49.70
2019-06-20T10:10:38.023Z,51.69
2019-06-20T10:12:13.325Z,49.34
2019-06-20T10:13:48.211Z,50.27
2019-06-20T10:15:25.248Z,52.66
2019-06-20T10:16:59.976Z,51.59
2019-06-20T10:18:35.200Z,51.38
2019-06-20T10:20:09.897Z,52.14
2019-06-20T10:21:46.766Z,51.76
2019-06-20T10:23:21.558Z,53.37
2019-06-20T10:24:57.883Z,51.31
2019-06-20T10:26:32.614Z,50.71
2019-06-20T10:28:08.008Z,47.70
2019-06-20T10:29:42.661Z,46.66
2019-06-20T10:31:17.955Z,47.14
2019-06-20T10:32:53.172Z,46.82
2019-06-20T10:34:31.127Z,48.60
2019-06-20T10:36:05.097Z,47.53
2019-06-20T10:37:40.482Z,48.55
2019-06-20T10:39:15.118Z,47.40
2019-06-20T10:40:50.459Z,47.03
2019-06-20T10:42:25.109Z,48.47
2019-06-20T10:44:00.330Z,48.22
2019-06-20T10:45:35.722Z,49.32
2019-06-20T10:47:11.114Z,48.18
2019-06-20T10:48:46.009Z,48.11
2019-06-20T10:50:21.758Z,47.75
2019-06-20T10:51:56.397Z,46.90
2019-06-20T10:53:31.642Z,45.15
2019-06-20T10:55:07.194Z,46.08
2019-06-20T10:56:44.109Z,47.92
2019-06-20T10:58:18.847Z,48.01
2019-06-20T10:59:54.075Z,50.56
2019-06-20T11:01:28.709Z,48.32
2019-06-20T11:03:04.035Z,48.33
2019-06-20T11:04:40.491Z,49.75
2019-06-20T11:06:15.590Z,48.52
2019-06-20T11:07:50.406Z,50.58
2019-06-20T11:09:25.661Z,48.66
2019-06-20T11:11:00.317Z,49.41
2019-06-20T11:12:45.692Z,46.74
2019-06-20T11:14:12.164Z,47.62
2019-06-20T11:15:48.281Z,48.48
2019-06-20T11:17:24.092Z,48.29
2019-06-20T11:18:59.340Z,48.37
2019-06-20T11:20:33.980Z,46.14
2019-06-20T11:22:09.303Z,45.11
2019-06-20T11:23:45.243Z,43.39
2019-06-20T11:25:21.047Z,43.86
2019-06-20T11:26:55.698Z,44.60
2019-06-20T11:28:30.996Z,47.58
2019-06-20T11:30:08.012Z,47.94
2019-06-20T11:31:46.384Z,46.62
2019-06-20T11:33:20.530Z,46.69
2019-06-20T11:34:55.764Z,47.26
2019-06-20T11:36:30.401Z,47.15
2019-06-20T11:38:05.626Z,47.67
2019-06-20T11:39:41.091Z,47.83
2019-06-20T11:41:16.392Z,48.51
2019-06-20T11:42:51.165Z,45.91
2019-06-20T11:44:27.346Z,44.41
2019-06-20T11:46:02.026Z,44.47
2019-06-20T11:47:38.268Z,47.82
2019-06-20T11:49:13.067Z,47.18
2019-06-20T11:50:48.421Z,49.37
2019-06-20T11:52:23.317Z,49.02
2019-06-20T11:53:58.538Z,48.97
2019-06-20T11:55:33.168Z,48.80
2019-06-20T11:57:08.414Z,47.14
2019-06-20T11:58:43.074Z,46.30
2019-06-20T12:00:18.468Z,47.88
2019-06-20T12:01:53.132Z,47.67
2019-06-20T12:03:28.689Z,48.25
2019-06-20T12:05:03.413Z,47.20
2019-06-20T12:06:40.137Z,47.64
2019-06-20T12:08:15.041Z,49.49
2019-06-20T12:09:51.112Z,47.32
2019-06-20T12:11:26.841Z,46.46
2019-06-20T12:13:02.109Z,49.77
2019-06-20T12:14:38.123Z,52.34
2019-06-20T12:16:13.657Z,53.21
2019-06-20T12:17:49.326Z,52.48
2019-06-20T12:19:24.801Z,51.41
2019-06-20T12:20:59.479Z,52.09
2019-06-20T12:22:34.897Z,50.80
2019-06-20T12:24:09.547Z,50.63
2019-06-20T12:25:44.861Z,50.21
2019-06-20T12:27:19.501Z,50.79
2019-06-20T12:28:54.810Z,50.53
2019-06-20T12:30:29.595Z,51.42
2019-06-20T12:32:05.197Z,51.22
2019-06-20T12:33:41.030Z,50.61
2019-06-20T12:35:16.296Z,50.22
2019-06-20T12:36:50.881Z,51.04
2019-06-20T12:38:26.127Z,50.02
2019-06-20T12:40:01.748Z,51.96
2019-06-20T12:41:38.735Z,51.63
2019-06-20T12:43:13.723Z,51.09
2019-06-20T12:44:50.719Z,52.09
2019-06-20T12:46:25.444Z,51.19
2019-06-20T12:48:00.685Z,50.86
2019-06-20T12:49:35.325Z,51.36
2019-06-20T12:51:10.628Z,51.28
2019-06-20T12:52:45.818Z,50.58
2019-06-20T12:54:22.263Z,49.79
2019-06-20T12:55:57.002Z,49.63
2019-06-20T12:57:32.247Z,49.34
2019-06-20T12:59:06.968Z,48.99
2019-06-20T13:00:43.635Z,49.34
2019-06-20T13:02:18.694Z,49.44
2019-06-20T13:03:53.996Z,49.94
2019-06-20T13:05:28.788Z,49.20
2019-06-20T13:07:03.997Z,48.08
2019-06-20T13:08:39.013Z,47.55
2019-06-20T13:10:15.714Z,46.78
2019-06-20T13:11:50.372Z,46.86
2019-06-20T13:13:25.587Z,46.82
2019-06-20T13:15:00.306Z,48.83
2019-06-20T13:16:35.564Z,48.70
2019-06-20T13:18:10.196Z,49.93
2019-06-20T13:19:46.506Z,49.46
2019-06-20T13:21:21.190Z,48.77
2019-06-20T13:22:56.436Z,50.33
2019-06-20T13:24:31.078Z,50.65
2019-06-20T13:26:06.392Z,49.97
2019-06-20T13:27:41.136Z,49.62
2019-06-20T13:29:16.368Z,49.59
2019-06-20T13:30:52.245Z,47.66
2019-06-20T13:32:27.536Z,47.42
2019-06-20T13:34:02.218Z,47.96
2019-06-20T13:35:39.982Z,47.87
2019-06-20T13:37:15.634Z,47.96
2019-06-20T13:38:50.993Z,47.29
2019-06-20T13:40:25.716Z,48.41
2019-06-20T13:42:00.984Z,48.74
2019-06-20T13:43:35.633Z,48.40
2019-06-20T13:45:19.988Z,48.26
2019-06-20T13:46:55.201Z,48.13
2019-06-20T13:48:29.863Z,48.69
2019-06-20T13:50:06.162Z,48.32
2019-06-20T13:51:41.919Z,48.75
2019-06-20T13:53:17.276Z,49.24
2019-06-20T13:54:52.124Z,48.60
2019-06-20T13:56:27.388Z,48.96
2019-06-20T13:58:02.036Z,48.09
2019-06-20T13:59:37.616Z,48.51
2019-06-20T14:01:12.252Z,47.75
2019-06-20T14:02:48.908Z,49.07
2019-06-20T14:04:24.062Z,49.27
2019-06-20T14:05:59.379Z,49.12
2019-06-20T14:07:34.123Z,50.09
2019-06-20T14:09:09.418Z,49.15
2019-06-20T14:10:44.774Z,47.79
2019-06-20T14:12:21.186Z,47.46
2019-06-20T14:13:55.813Z,47.16
2019-06-20T14:15:31.113Z,47.51
2019-06-20T14:17:05.852Z,47.35
2019-06-20T14:18:42.591Z,48.26
2019-06-20T14:20:17.993Z,47.58
2019-06-20T14:21:54.325Z,46.92
2019-06-20T14:23:29.059Z,46.15
2019-06-20T14:25:04.971Z,47.26
2019-06-20T14:26:39.613Z,46.85
2019-06-20T14:28:14.861Z,47.73
2019-06-20T14:29:50.823Z,49.39
2019-06-20T14:31:26.187Z,48.16
2019-06-20T14:33:00.843Z,47.87
2019-06-20T14:34:36.251Z,47.79
2019-06-20T14:36:10.996Z,46.67
2019-06-20T14:37:49.271Z,46.41
2019-06-20T14:39:23.846Z,46.19
2019-06-20T14:40:59.097Z,47.03
2019-06-20T14:42:33.738Z,47.27
2019-06-20T14:44:08.976Z,47.26
2019-06-20T14:45:45.125Z,47.85
2019-06-20T14:47:20.570Z,47.37
2019-06-20T14:48:55.230Z,48.05
2019-06-20T14:50:31.541Z,46.96
2019-06-20T14:52:06.359Z,46.71
2019-06-20T14:53:43.903Z,47.17
2019-06-20T14:55:19.390Z,47.13
2019-06-20T14:56:57.952Z,48.02
2019-06-20T14:58:30.949Z,47.80
2019-06-20T15:00:07.818Z,47.49
2019-06-20T15:01:44.587Z,48.25
2019-06-20T15:03:19.642Z,47.76
2019-06-20T15:04:54.433Z,47.89
2019-06-20T15:06:29.704Z,48.07
2019-06-20T15:08:04.478Z,49.16
2019-06-20T15:09:39.671Z,49.29
2019-06-20T15:11:14.371Z,48.69
2019-06-20T15:12:51.396Z,48.22
2019-06-20T15:14:25.937Z,48.07
2019-06-20T15:16:01.181Z,48.20
2019-06-20T15:17:36.977Z,48.11
2019-06-20T15:19:12.213Z,48.83
2019-06-20T15:20:48.307Z,48.18
2019-06-20T15:22:23.794Z,49.13
2019-06-20T15:23:58.506Z,49.16
2019-06-20T15:25:33.807Z,48.34
2019-06-20T15:27:08.528Z,48.78
2019-06-20T15:28:43.765Z,49.33
2019-06-20T15:30:18.766Z,48.58
2019-06-20T15:31:54.861Z,47.97
2019-06-20T15:33:29.538Z,48.46
2019-06-20T15:35:05.060Z,47.30
2019-06-20T15:36:39.787Z,46.95
2019-06-20T15:38:15.068Z,47.42
2019-06-20T15:39:51.390Z,47.89
2019-06-20T15:41:26.666Z,48.31
2019-06-20T15:43:01.391Z,48.98
2019-06-20T15:44:36.625Z,50.18
2019-06-20T15:46:11.276Z,50.05
2019-06-20T15:47:46.577Z,50.11
2019-06-20T15:49:21.246Z,50.13
2019-06-20T15:50:56.481Z,49.54
2019-06-20T15:52:31.163Z,49.08
2019-06-20T15:54:06.984Z,49.10
2019-06-20T15:55:41.731Z,48.22
2019-06-20T15:57:16.907Z,48.17
2019-06-20T15:58:51.541Z,47.62
2019-06-20T16:00:28.399Z,47.34
2019-06-20T16:02:03.201Z,47.44
2019-06-20T16:03:38.437Z,48.70
2019-06-20T16:05:13.073Z,47.98
2019-06-20T16:06:48.621Z,48.84
2019-06-20T16:08:24.582Z,50.08
2019-06-20T16:09:59.802Z,50.24
2019-06-20T16:11:34.451Z,50.47
2019-06-20T16:13:09.667Z,51.20
2019-06-20T16:14:44.332Z,52.06
2019-06-20T16:16:19.565Z,51.78
2019-06-20T16:17:54.294Z,52.17
2019-06-20T16:19:29.561Z,52.41
2019-06-20T16:21:04.620Z,52.96
2019-06-20T16:22:39.895Z,52.32
2019-06-20T16:24:14.529Z,52.51
2019-06-20T16:25:49.746Z,51.22
2019-06-20T16:27:24.395Z,51.31
2019-06-20T16:28:59.625Z,51.85
2019-06-20T16:30:34.278Z,51.63
2019-06-20T16:32:09.537Z,51.54
2019-06-20T16:33:44.168Z,52.26
2019-06-20T16:35:19.747Z,52.20
2019-06-20T16:37:08.971Z,52.14
2019-06-20T16:38:31.372Z,52.17
2019-06-20T16:40:06.267Z,52.59
2019-06-20T16:41:41.496Z,52.67
2019-06-20T16:43:16.219Z,52.89
2019-06-20T16:44:51.436Z,52.85
2019-06-20T16:46:26.110Z,52.05
2019-06-20T16:48:01.379Z,51.96
2019-06-20T16:49:36.120Z,51.46
2019-06-20T16:51:11.357Z,51.52
2019-06-20T16:52:46.006Z,52.04
2019-06-20T16:54:21.267Z,52.62
2019-06-20T16:55:57.074Z,51.65
2019-06-20T16:57:32.311Z,51.10
2019-06-20T16:59:06.925Z,50.92
2019-06-20T17:00:42.281Z,51.33
2019-06-20T17:02:16.895Z,51.82
2019-06-20T17:03:52.123Z,51.79
2019-06-20T17:05:26.855Z,52.16
2019-06-20T17:07:02.793Z,52.14
2019-06-20T17:08:37.481Z,52.91
2019-06-20T17:10:13.144Z,53.14
2019-06-20T17:11:47.780Z,52.39
2019-06-20T17:13:23.052Z,52.20
2019-06-20T17:14:57.726Z,52.31
2019-06-20T17:16:33.026Z,53.15
2019-06-20T17:18:07.817Z,53.47
2019-06-20T17:19:43.050Z,53.35
2019-06-20T17:21:17.734Z,54.00
2019-06-20T17:22:52.992Z,53.50
2019-06-20T17:24:27.641Z,53.46
2019-06-20T17:26:02.994Z,54.22
2019-06-20T17:27:37.760Z,54.96
2019-06-20T17:29:13.012Z,55.21
2019-06-20T17:30:47.741Z,55.31
2019-06-20T17:32:23.044Z,55.35
2019-06-20T17:33:58.116Z,55.86
2019-06-20T17:35:33.336Z,55.92
2019-06-20T17:37:08.084Z,56.17
2019-06-20T17:38:43.329Z,56.15
2019-06-20T17:40:18.802Z,55.68
2019-06-20T17:41:55.542Z,55.82
2019-06-20T17:43:30.511Z,55.87
2019-06-20T17:45:06.369Z,55.84
2019-06-20T17:46:42.164Z,56.38
2019-06-20T17:48:17.473Z,56.34
2019-06-20T17:49:52.087Z,56.86
2019-06-20T17:51:27.652Z,56.82
2019-06-20T17:53:02.532Z,57.27
2019-06-20T17:54:37.775Z,57.15
2019-06-20T17:56:12.428Z,57.63
2019-06-20T17:57:47.719Z,57.73
2019-06-20T17:59:22.921Z,58.18
2019-06-20T18:00:58.620Z,58.16
2019-06-20T18:02:33.269Z,58.19
2019-06-20T18:04:13.737Z,57.83
2019-06-20T18:05:44.906Z,57.98
2019-06-20T18:07:20.134Z,57.61
2019-06-20T18:08:54.798Z,57.17
2019-06-20T18:10:30.130Z,57.33
2019-06-20T18:12:04.947Z,57.22
2019-06-20T18:13:40.132Z,57.54
2019-06-20T18:15:15.211Z,57.76
2019-06-20T18:16:50.450Z,58.23
2019-06-20T18:18:25.159Z,58.97
2019-06-20T18:20:00.439Z,63.17
2019-06-20T18:21:35.165Z,69.08
2019-06-20T18:23:10.481Z,71.92
2019-06-20T18:24:45.128Z,74.36
2019-06-20T18:26:20.357Z,76.38
2019-06-20T18:27:55.029Z,78.06
2019-06-20T18:29:30.276Z,78.67
2019-06-20T18:31:05.010Z,80.13
2019-06-20T18:32:40.325Z,81.21
2019-06-20T18:34:29.104Z,82.96
2019-06-20T18:35:51.934Z,85.39
2019-06-20T18:37:31.469Z,86.55
2019-06-20T18:39:03.583Z,87.37
2019-06-20T18:40:39.895Z,87.63
2019-06-20T18:42:15.110Z,87.64
2019-06-20T18:43:49.804Z,88.87
2019-06-20T18:45:25.481Z,88.66
2019-06-20T18:47:00.122Z,89.84
2019-06-20T18:48:35.337Z,89.43
2019-06-20T18:50:10.431Z,90.32
2019-06-20T18:51:45.683Z,90.51
2019-06-20T18:53:20.333Z,88.93
2019-06-20T18:54:55.543Z,89.26
2019-06-20T18:56:30.194Z,89.47
2019-06-20T18:58:05.498Z,89.74
2019-06-20T18:59:40.168Z,89.82
2019-06-20T19:01:15.481Z,91.15
2019-06-20T19:02:51.079Z,90.57
2019-06-20T19:04:26.336Z,90.73
2019-06-20T19:06:01.228Z,91.87
2019-06-20T19:07:36.989Z,91.42
2019-06-20T19:09:11.701Z,90.69
2019-06-20T19:10:47.150Z,91.95
2019-06-20T19:12:21.770Z,92.89
2019-06-20T19:13:57.006Z,91.95
2019-06-20T19:15:31.723Z,92.67
2019-06-20T19:17:06.965Z,91.92
2019-06-20T19:18:41.639Z,92.75
2019-06-20T19:20:17.479Z,91.00
2019-06-20T19:21:52.102Z,93.03
2019-06-20T19:23:27.382Z,93.32
2019-06-20T19:25:04.057Z,91.44
2019-06-20T19:26:39.008Z,92.76
2019-06-20T19:28:13.688Z,91.38
2019-06-20T19:29:49.796Z,92.50
2019-06-20T19:31:24.853Z,93.64
2019-06-20T19:33:00.165Z,93.59
2019-06-20T19:34:34.824Z,93.94
2019-06-20T19:36:10.051Z,93.66
2019-06-20T19:37:45.683Z,93.33
2019-06-20T19:39:20.905Z,93.87
2019-06-20T19:40:55.825Z,93.72
2019-06-20T19:42:31.157Z,93.82
2019-06-20T19:44:05.984Z,93.83
2019-06-20T19:45:41.281Z,94.25
2019-06-20T19:47:15.900Z,94.19
2019-06-20T19:48:51.109Z,94.58
2019-06-20T19:50:25.833Z,95.19
2019-06-20T19:52:01.138Z,95.16
2019-06-20T19:53:35.933Z,94.64
2019-06-20T19:55:11.991Z,94.21
2019-06-20T19:56:46.717Z,94.19
2019-06-20T19:58:22.152Z,95.05
2019-06-20T19:59:56.864Z,94.94
2019-06-20T20:01:32.246Z,95.73
2019-06-20T20:03:06.965Z,96.24
2019-06-20T20:04:44.209Z,96.43
2019-06-20T20:06:19.138Z,95.95
2019-06-20T20:07:54.918Z,94.86
2019-06-20T20:09:29.760Z,95.24
2019-06-20T20:11:05.161Z,95.16
2019-06-20T20:12:40.298Z,95.81
2019-06-20T20:14:15.588Z,95.27
2019-06-20T20:15:50.407Z,96.56
2019-06-20T20:17:25.900Z,95.87
2019-06-20T20:19:00.704Z,96.30
2019-06-20T20:20:36.515Z,96.63